Time;durP1;ratioP1;P1;durP2;ratioP2;P2;SDS_P1;SDS_P2;PMS_P1;PMS_P2;Temp;Humidity;BMP_temperature;BMP_pressure;BME280_temperature;BME280_humidity;BME280_pressure;Samples;Min_cycle;Max_cycle;Signal;HPM_P1;HPM_P2
2022/02/10 00:13:50;;;;;;;25.77;12.48;;;;;;;5.34;70.14;99239.06;5023679;28;20030;-79
2022/02/10 00:24:42;;;;;;;20.73;10.38;;;;;;;5.32;70.57;99228.44;5050826;28;20033;-78
2022/02/10 00:37:58;;;;;;;19.17;11.23;;;;;;;5.36;70.25;99218.72;5063908;28;20414;-78
2022/02/10 00:40:33;;;;;;;18.85;9.98;;;;;;;5.37;70.33;99219.53;5063755;28;20371;-78
2022/02/10 00:43:02;;;;;;;18.02;9.00;;;;;;;5.38;70.42;99217.66;5061434;28;20546;-78
2022/02/10 00:45:30;;;;;;;17.67;9.65;;;;;;;5.38;70.39;99214.94;5059560;28;20020;-79
2022/02/10 00:48:00;;;;;;;19.52;11.20;;;;;;;5.38;70.46;99215.75;5061781;28;20420;-77
2022/02/10 00:50:27;;;;;;;18.92;9.18;;;;;;;5.34;69.59;99212.69;5062469;28;20150;-76
2022/02/10 00:53:15;;;;;;;19.35;10.32;;;;;;;5.32;70.21;99217.56;5062214;28;20035;-77
2022/02/10 00:55:43;;;;;;;17.58;9.27;;;;;;;5.29;69.71;99219.94;5062856;28;20024;-77
2022/02/10 00:58:13;;;;;;;16.88;10.18;;;;;;;5.25;70.15;99214.16;5061865;28;20159;-77
2022/02/10 01:14:07;;;;;;;15.27;8.93;;;;;;;5.21;70.36;99207.53;5065477;28;20111;-77
2022/02/10 01:30:13;;;;;;;13.82;8.10;;;;;;;5.19;70.01;99215.94;5066991;28;20086;-78
2022/02/10 01:32:41;;;;;;;14.38;8.13;;;;;;;5.20;69.83;99206.72;5066974;28;20052;-78
2022/02/10 01:35:09;;;;;;;23.77;13.38;;;;;;;5.20;70.20;99197.72;5065483;28;20020;-78
2022/02/10 01:37:37;;;;;;;16.13;9.32;;;;;;;5.21;70.43;99199.38;5067947;28;20017;-78
2022/02/10 01:40:12;;;;;;;17.27;9.25;;;;;;;5.22;70.56;99195.59;5068784;28;20032;-78
2022/02/10 02:04:50;;;;;;;15.18;8.73;;;;;;;5.24;70.32;99170.88;5063398;28;20559;-79
2022/02/10 02:07:16;;;;;;;14.50;9.43;;;;;;;5.22;70.18;99173.84;5065786;28;20024;-79
2022/02/10 02:09:41;;;;;;;14.88;9.60;;;;;;;5.22;69.74;99169.22;5065559;28;20536;-79
2022/02/10 02:12:09;;;;;;;15.35;9.80;;;;;;;5.22;70.14;99168.41;5065773;28;20036;-79
2022/02/10 02:14:36;;;;;;;14.40;8.43;;;;;;;5.21;70.24;99164.03;5063993;28;20647;-79
2022/02/10 02:17:06;;;;;;;11.20;7.95;;;;;;;5.21;69.48;99172.19;5065694;28;20584;-76
2022/02/10 02:19:32;;;;;;;15.32;8.63;;;;;;;5.21;69.86;99164.03;5064887;28;20032;-76
2022/02/10 02:22:02;;;;;;;16.38;9.10;;;;;;;5.21;69.90;99162.16;5063678;28;20021;-77
2022/02/10 02:24:28;;;;;;;13.85;8.40;;;;;;;5.22;69.89;99166.50;5063730;28;20017;-76
2022/02/10 02:26:56;;;;;;;13.95;7.75;;;;;;;5.20;69.87;99163.22;5064809;28;20024;-76
2022/02/10 02:29:37;;;;;;;12.32;8.13;;;;;;;5.20;69.52;99159.66;5065218;28;20033;-76
2022/02/10 02:32:09;;;;;;;14.68;9.43;;;;;;;5.19;70.19;99167.00;5064310;28;20119;-76
2022/02/10 02:35:09;;;;;;;15.18;9.35;;;;;;;5.21;69.84;99167.59;5062750;28;20051;-77
2022/02/10 02:37:57;;;;;;;15.63;9.77;;;;;;;5.19;69.88;99164.28;5064586;28;20032;-76
2022/02/10 03:05:01;;;;;;;18.60;11.45;;;;;;;5.15;70.52;99144.06;5062645;28;21411;-76
2022/02/10 03:07:36;;;;;;;19.30;12.25;;;;;;;5.14;69.92;99137.00;5062448;28;20490;-76
2022/02/10 03:12:39;;;;;;;22.17;13.02;;;;;;;5.11;70.16;99142.91;5063488;28;20101;-75
2022/02/10 03:15:10;;;;;;;19.05;11.00;;;;;;;5.12;70.47;99146.44;5061823;28;20630;-75
2022/02/10 03:17:45;;;;;;;21.05;12.00;;;;;;;5.12;70.16;99149.16;5062740;28;20358;-76
2022/02/10 03:20:35;;;;;;;19.27;11.45;;;;;;;5.12;70.76;99154.59;5063332;28;20029;-76
2022/02/10 04:15:07;;;;;;;21.30;11.18;;;;;;;4.91;71.25;99136.00;5061854;28;20051;-77
2022/02/10 05:06:08;;;;;;;18.67;10.68;;;;;;;4.94;71.23;99112.97;5062125;28;20046;-77
2022/02/10 05:16:50;;;;;;;16.15;10.02;;;;;;;4.91;71.63;99111.53;5062700;28;20090;-77
2022/02/10 05:35:13;;;;;;;20.27;11.27;;;;;;;4.90;71.54;99112.59;5058964;28;20085;-76
2022/02/10 05:37:39;;;;;;;16.50;10.52;;;;;;;4.91;71.73;99119.69;5062065;28;20112;-77
2022/02/10 05:40:11;;;;;;;18.40;12.00;;;;;;;4.93;71.92;99116.75;5062275;28;20115;-77
2022/02/10 05:45:49;;;;;;;23.50;13.43;;;;;;;4.94;71.40;99114.84;5060646;28;20048;-77
2022/02/10 05:56:05;;;;;;;26.55;15.35;;;;;;;4.99;71.88;99123.09;5062658;28;20106;-77
2022/02/10 05:59:10;;;;;;;31.55;17.30;;;;;;;5.06;72.23;99121.06;5064471;28;20402;-77
2022/02/10 06:47:50;;;;;;;33.75;17.88;;;;;;;5.13;71.76;99085.56;5065244;28;20036;-77
2022/02/10 06:52:53;;;;;;;33.38;17.58;;;;;;;5.15;71.88;99083.41;5064864;28;20490;-76
2022/02/10 08:28:37;;;;;;;38.00;20.05;;;;;;;6.13;70.57;99060.47;5061670;28;20038;-76
2022/02/10 08:56:57;;;;;;;32.70;17.52;;;;;;;6.97;69.01;99044.78;5059406;28;20047;-76
2022/02/10 09:12:53;;;;;;;26.05;15.05;;;;;;;7.39;67.33;99035.06;5061258;28;20036;-76
2022/02/10 09:48:15;;;;;;;22.15;12.50;;;;;;;8.03;64.41;99014.16;5064790;28;20083;-74
2022/02/10 09:58:38;;;;;;;22.10;11.52;;;;;;;8.12;63.74;99019.94;5063429;28;20035;-75
2022/02/10 10:01:36;;;;;;;17.50;9.60;;;;;;;8.15;63.91;99013.91;5065051;28;20130;-74
2022/02/10 10:04:20;;;;;;;18.63;10.82;;;;;;;8.19;63.79;99008.75;5061848;28;20029;-78
2022/02/10 10:15:37;;;;;;;14.32;8.88;;;;;;;8.42;63.30;98982.88;5061051;28;20037;-73
2022/02/10 10:23:47;;;;;;;15.05;7.20;;;;;;;8.54;62.97;98971.72;5061197;28;20052;-72
2022/02/10 10:54:29;;;;;;;17.92;8.70;;;;;;;9.01;61.43;98915.13;5061070;28;20498;-73
2022/02/10 10:57:02;;;;;;;15.05;8.55;;;;;;;9.06;60.66;98898.72;5063439;28;20740;-74
2022/02/10 10:59:36;;;;;;;15.13;7.82;;;;;;;9.13;60.94;98892.16;5062701;28;20432;-74
2022/02/10 11:42:49;;;;;;;23.35;12.02;;;;;;;9.12;60.68;98800.22;5076989;28;20044;-82
2022/02/10 14:15:12;;;;;;;9.63;6.17;;;;;;;10.23;55.90;98634.63;5063597;28;20036;-79
2022/02/10 14:17:47;;;;;;;9.55;6.03;;;;;;;10.14;55.92;98644.59;5065415;28;20024;-79
2022/02/10 14:21:17;;;;;;;8.95;6.15;;;;;;;9.95;56.95;98636.28;5064813;28;20393;-81
2022/02/10 14:25:51;;;;;;;9.00;5.85;;;;;;;9.64;57.55;98622.81;5064436;28;20043;-79
2022/02/10 14:28:27;;;;;;;11.15;6.13;;;;;;;9.56;58.27;98629.72;5063301;28;20024;-78
2022/02/10 14:30:54;;;;;;;8.45;6.50;;;;;;;9.49;58.14;98637.44;5062316;28;20062;-78
2022/02/10 14:33:29;;;;;;;11.60;6.45;;;;;;;9.42;59.02;98635.03;5058967;28;20115;-81
2022/02/10 14:36:01;;;;;;;10.95;6.32;;;;;;;9.34;58.37;98625.53;5063858;28;20582;-80
2022/02/10 16:18:17;;;;;;;30.75;13.25;;;;;;;7.87;63.66;98520.88;5047082;28;20043;-73
2022/02/10 16:20:49;;;;;;;33.28;14.68;;;;;;;7.85;63.67;98526.63;5045698;28;20135;-72
2022/02/10 16:23:20;;;;;;;25.58;11.77;;;;;;;7.84;63.62;98524.16;5043838;28;20493;-73
2022/02/10 16:26:08;;;;;;;19.98;10.00;;;;;;;7.83;63.35;98528.81;5038198;28;20434;-73
2022/02/10 16:28:35;;;;;;;21.23;10.35;;;;;;;7.81;63.62;98530.19;5034691;28;20102;-73
2022/02/10 16:31:02;;;;;;;16.88;9.18;;;;;;;7.78;63.14;98523.34;5041164;28;20702;-73
2022/02/10 16:33:31;;;;;;;15.90;8.38;;;;;;;7.79;63.62;98529.63;5042868;28;20499;-73
2022/02/10 16:35:59;;;;;;;16.20;8.90;;;;;;;7.77;63.10;98521.72;5056549;28;20603;-74
2022/02/10 16:38:25;;;;;;;14.80;8.20;;;;;;;7.78;63.16;98528.00;5044612;28;20041;-77
2022/02/10 16:40:50;;;;;;;20.92;10.90;;;;;;;7.77;63.16;98518.97;5054891;28;20035;-77
2022/02/10 16:43:16;;;;;;;18.25;9.70;;;;;;;7.77;63.61;98520.91;5042889;28;20033;-77
2022/02/10 16:45:41;;;;;;;15.30;9.25;;;;;;;7.73;63.51;98521.47;5039629;28;20039;-77
2022/02/10 16:48:07;;;;;;;17.65;10.45;;;;;;;7.71;63.35;98520.09;5033685;28;20033;-78
2022/02/10 16:50:34;;;;;;;14.85;8.77;;;;;;;7.72;63.27;98530.75;5036268;28;20049;-77
2022/02/10 16:53:05;;;;;;;15.10;9.15;;;;;;;7.71;63.75;98533.75;5040561;28;20577;-76
2022/02/10 17:19:45;;;;;;;17.33;8.48;;;;;;;7.54;63.46;98569.53;5043198;28;20042;-73
2022/02/10 17:27:45;;;;;;;14.00;7.78;;;;;;;7.56;63.51;98595.44;5042231;28;20044;-74
2022/02/10 17:35:48;;;;;;;29.67;18.67;;;;;;;7.51;63.80;98589.19;5045459;28;20032;-74
2022/02/10 17:46:54;;;;;;;63.60;24.60;;;;;;;7.45;63.71;98591.06;5050674;28;20041;-74
2022/02/10 17:52:14;;;;;;;49.97;20.38;;;;;;;7.47;63.59;98566.25;5035611;28;20048;-75
2022/02/10 17:54:41;;;;;;;61.42;24.75;;;;;;;7.47;63.46;98566.25;5043691;28;20029;-74
2022/02/10 17:57:07;;;;;;;76.28;28.92;;;;;;;7.47;63.75;98580.69;5050359;28;20049;-75
2022/02/10 17:59:34;;;;;;;70.78;30.13;;;;;;;7.47;63.66;98569.78;5047155;28;20482;-75
2022/02/10 18:02:01;;;;;;;58.90;23.92;;;;;;;7.48;63.81;98574.16;5049328;28;20060;-74
2022/02/10 18:04:26;;;;;;;45.17;19.65;;;;;;;7.50;63.46;98571.16;5048395;28;20055;-74
2022/02/10 18:06:59;;;;;;;66.05;26.60;;;;;;;7.52;63.90;98567.06;5050497;28;20471;-74
2022/02/10 18:17:34;;;;;;;20.63;10.52;;;;;;;7.58;63.40;98571.44;5046879;28;20040;-74
2022/02/10 18:20:06;;;;;;;28.37;14.23;;;;;;;7.60;63.47;98561.06;5049035;28;20144;-74
2022/02/10 18:30:26;;;;;;;19.88;10.38;;;;;;;7.66;63.13;98558.34;5043194;28;20943;-73
2022/02/10 19:08:25;;;;;;;18.30;8.68;;;;;;;8.00;60.70;98596.75;5073009;28;20508;-72
2022/02/10 19:10:56;;;;;;;15.10;7.95;;;;;;;8.01;60.88;98587.47;5071715;28;20055;-72
2022/02/10 19:13:23;;;;;;;15.82;7.70;;;;;;;8.01;60.63;98582.00;5072492;28;20028;-72
2022/02/10 19:15:50;;;;;;;15.32;7.47;;;;;;;8.00;60.41;98574.91;5072185;28;20033;-71
2022/02/10 19:18:16;;;;;;;14.13;7.35;;;;;;;8.00;60.78;98579.56;5072612;28;20398;-72
2022/02/10 19:20:42;;;;;;;15.05;7.85;;;;;;;7.99;60.91;98573.28;5071465;28;20040;-72
2022/02/10 19:23:09;;;;;;;12.10;7.03;;;;;;;7.99;60.90;98572.47;5072239;28;20517;-71
2022/02/10 19:25:39;;;;;;;15.48;7.47;;;;;;;8.00;60.21;98587.75;5071959;28;20029;-72
2022/02/10 19:28:06;;;;;;;15.23;8.38;;;;;;;8.00;60.29;98576.84;5072504;28;20089;-72
2022/02/10 19:30:35;;;;;;;15.80;8.13;;;;;;;7.99;60.32;98577.94;5071567;28;20048;-72
2022/02/10 19:33:03;;;;;;;22.20;9.23;;;;;;;7.98;60.10;98579.84;5072037;28;20024;-70
2022/02/10 19:35:30;;;;;;;19.75;8.65;;;;;;;7.98;60.58;98582.56;5071581;28;20021;-72
2022/02/10 19:38:00;;;;;;;15.52;8.65;;;;;;;7.98;59.94;98585.28;5072401;28;20373;-72
2022/02/10 19:40:28;;;;;;;17.88;8.75;;;;;;;7.98;60.27;98582.56;5071722;28;20021;-73
2022/02/10 19:42:55;;;;;;;18.35;9.50;;;;;;;7.98;60.33;98589.97;5071566;28;20111;-72
2022/02/10 19:45:23;;;;;;;19.60;9.13;;;;;;;7.98;60.90;98596.22;5070318;28;20387;-73
2022/02/10 19:47:50;;;;;;;22.05;9.35;;;;;;;7.99;60.53;98594.31;5071477;28;20070;-73
2022/02/10 19:50:21;;;;;;;22.02;9.88;;;;;;;7.99;60.02;98592.41;5072152;28;20135;-72
2022/02/10 19:52:49;;;;;;;23.80;9.80;;;;;;;7.98;60.08;98595.41;5071750;28;20078;-71
2022/02/10 19:55:20;;;;;;;22.73;9.93;;;;;;;7.95;59.75;98596.78;5070366;28;20086;-71
2022/02/10 19:57:51;;;;;;;23.45;11.00;;;;;;;7.95;60.40;98595.97;5069275;28;20047;-76
2022/02/10 20:00:21;;;;;;;22.23;9.55;;;;;;;7.96;59.74;98597.59;5069858;28;20115;-70
2022/02/10 20:02:47;;;;;;;;;;;;;;;7.96;60.18;98601.13;5070951;28;20029;-71
2022/02/10 20:05:12;;;;;;;18.90;8.70;;;;;;;7.94;60.21;98606.09;5070593;28;20357;-71
2022/02/10 20:07:39;;;;;;;17.60;8.25;;;;;;;7.93;60.64;98618.09;5070784;28;20115;-70
2022/02/10 20:10:06;;;;;;;17.20;9.10;;;;;;;7.92;60.15;98618.38;5067638;28;20032;-69
2022/02/10 20:12:32;;;;;;;17.23;8.85;;;;;;;7.90;59.97;98615.91;5066426;28;20021;-71
2022/02/10 20:14:57;;;;;;;22.90;10.32;;;;;;;7.88;60.20;98618.91;5069810;28;20471;-72
2022/02/10 20:17:23;;;;;;;21.05;9.75;;;;;;;7.89;60.58;98626.00;5068572;28;20143;-71
2022/02/10 20:19:48;;;;;;;17.42;9.05;;;;;;;7.88;60.40;98616.19;5069285;28;20460;-70
2022/02/10 20:22:14;;;;;;;20.23;9.95;;;;;;;7.86;60.01;98625.75;5068599;28;20047;-72
2022/02/10 20:24:40;;;;;;;22.52;9.63;;;;;;;7.86;60.19;98623.81;5069664;28;20095;-70
2022/02/10 20:27:06;;;;;;;24.20;10.38;;;;;;;7.86;60.34;98623.81;5069896;28;20108;-70
2022/02/10 20:29:31;;;;;;;23.63;10.93;;;;;;;7.84;60.68;98628.75;5068952;28;20043;-69
2022/02/10 20:31:57;;;;;;;19.17;10.00;;;;;;;7.81;60.47;98629.28;5046877;28;20686;-70
2022/02/10 20:34:23;;;;;;;15.63;8.38;;;;;;;7.80;60.59;98616.72;5039744;28;20098;-72
2022/02/10 20:36:49;;;;;;;17.80;8.65;;;;;;;7.83;60.38;98620.84;5040321;28;20029;-73
2022/02/10 20:39:21;;;;;;;15.05;7.10;;;;;;;7.81;59.97;98623.03;5044450;28;20035;-72
2022/02/10 20:41:51;;;;;;;15.77;7.97;;;;;;;7.82;59.70;98616.47;5041647;28;20032;-72
2022/02/10 20:44:16;;;;;;;15.40;7.82;;;;;;;7.81;59.57;98621.09;5056502;28;20115;-73
2022/02/10 20:46:43;;;;;;;16.23;8.32;;;;;;;7.82;59.24;98621.94;5045485;28;20826;-72
2022/02/10 20:49:16;;;;;;;16.75;7.47;;;;;;;7.81;59.12;98632.00;5042668;28;20032;-72
2022/02/10 20:51:47;;;;;;;14.43;7.47;;;;;;;7.81;59.53;98644.88;5041474;28;20044;-73
2022/02/10 20:54:13;;;;;;;12.45;6.78;;;;;;;7.81;59.20;98642.94;5035135;28;20072;-73
2022/02/10 20:56:38;;;;;;;10.55;6.60;;;;;;;7.84;59.09;98650.59;5034140;28;20474;-72
2022/02/10 20:59:19;;;;;;;11.48;6.15;;;;;;;7.86;59.37;98653.06;5042882;28;20032;-73
2022/02/10 21:01:51;;;;;;;10.38;5.80;;;;;;;7.88;59.00;98648.16;5042613;28;20052;-75
2022/02/10 21:04:16;;;;;;;13.27;6.82;;;;;;;7.89;58.93;98652.50;5048135;28;20896;-72
2022/02/10 21:07:51;;;;;;;13.80;6.43;;;;;;;7.92;58.97;98651.97;5056006;28;20036;-71
2022/02/10 21:12:14;;;;;;;9.93;6.22;;;;;;;7.96;59.23;98657.69;5043406;28;20845;-72
2022/02/10 21:14:40;;;;;;;11.93;6.75;;;;;;;7.97;59.01;98657.41;5034622;28;20033;-73
2022/02/10 21:17:09;;;;;;;14.02;6.80;;;;;;;7.94;58.91;98648.94;5033774;28;20029;-73
2022/02/10 21:19:35;;;;;;;11.50;5.95;;;;;;;7.89;58.73;98658.78;5042810;28;20025;-72
2022/02/10 21:22:06;;;;;;;14.07;6.82;;;;;;;7.90;58.55;98651.41;5044119;28;20040;-72
2022/02/10 21:24:33;;;;;;;13.27;6.03;;;;;;;7.88;58.38;98648.94;5044683;28;20956;-72
2022/02/10 21:27:26;;;;;;;10.73;5.32;;;;;;;7.86;58.89;98648.41;5043594;28;20029;-72
2022/02/10 21:29:56;;;;;;;12.77;6.90;;;;;;;7.84;58.76;98658.78;5050116;28;20053;-72
2022/02/10 21:32:22;;;;;;;12.57;7.80;;;;;;;7.83;58.45;98653.59;5058564;28;20032;-72
2022/02/10 21:35:05;;;;;;;13.82;7.30;;;;;;;7.79;58.73;98653.31;5043076;28;20075;-72
2022/02/10 21:37:31;;;;;;;12.13;6.95;;;;;;;7.74;58.64;98645.94;5040054;28;20036;-72
2022/02/10 21:40:26;;;;;;;11.90;6.18;;;;;;;7.67;58.77;98647.31;5041067;28;20033;-75
2022/02/10 21:56:25;;;;;;;14.95;7.38;;;;;;;7.44;59.41;98663.13;5042064;28;20040;-73
2022/02/10 21:59:17;;;;;;;10.85;6.20;;;;;;;7.43;59.95;98666.94;5039113;28;20475;-72
2022/02/10 22:09:23;;;;;;;10.95;5.90;;;;;;;7.42;60.03;98679.78;5047229;28;20033;-72
2022/02/10 22:19:45;;;;;;;12.80;6.93;;;;;;;7.36;60.19;98693.66;5032780;28;20040;-73
2022/02/10 22:22:18;;;;;;;16.80;8.07;;;;;;;7.33;60.04;98695.03;5042511;28;20051;-72
2022/02/10 22:24:44;;;;;;;14.70;6.90;;;;;;;7.31;60.76;98699.94;5049590;28;20516;-72
2022/02/10 22:27:10;;;;;;;12.73;7.15;;;;;;;7.32;60.46;98689.84;5057264;28;20222;-73
2022/02/10 22:29:50;;;;;;;12.32;6.95;;;;;;;7.33;60.88;98689.56;5062523;28;20033;-73
2022/02/10 22:32:29;;;;;;;22.77;8.63;;;;;;;7.30;60.67;98688.22;5061094;28;20032;-73
2022/02/10 22:34:55;;;;;;;18.80;8.43;;;;;;;7.26;60.94;98691.72;5069322;28;20032;-72
2022/02/10 22:37:21;;;;;;;15.20;8.65;;;;;;;7.25;61.15;98690.09;5069497;28;20028;-71
2022/02/10 22:39:49;;;;;;;14.25;7.28;;;;;;;7.23;61.12;98692.25;5065863;28;20036;-72
2022/02/10 22:42:15;;;;;;;14.05;7.43;;;;;;;7.22;60.98;98694.19;5065407;28;20036;-72
2022/02/10 22:44:41;;;;;;;13.20;7.95;;;;;;;7.19;61.95;98700.19;5068107;28;20032;-72
2022/02/10 22:47:10;;;;;;;13.77;7.13;;;;;;;7.17;61.17;98705.06;5065814;28;20541;-72
2022/02/10 22:49:36;;;;;;;13.20;7.75;;;;;;;7.13;61.92;98703.97;5065143;28;20040;-71
2022/02/10 22:52:03;;;;;;;23.48;11.18;;;;;;;7.08;62.07;98696.59;5070202;28;20903;-71
2022/02/10 22:54:28;;;;;;;17.42;8.70;;;;;;;7.08;62.32;98709.41;5069740;28;20024;-70
2022/02/10 22:56:54;;;;;;;17.95;9.43;;;;;;;7.06;62.35;98709.69;5069740;28;20032;-71
2022/02/10 22:59:20;;;;;;;21.30;9.18;;;;;;;7.04;62.42;98708.28;5069252;28;20098;-71
2022/02/10 23:01:46;;;;;;;21.15;10.18;;;;;;;7.05;62.13;98712.66;5068353;28;20031;-71
2022/02/10 23:04:11;;;;;;;17.83;9.45;;;;;;;7.07;62.25;98714.03;5068586;28;20505;-71
2022/02/10 23:06:37;;;;;;;20.77;9.55;;;;;;;7.05;62.74;98716.22;5067306;28;20788;-72
2022/02/10 23:09:30;;;;;;;16.73;8.45;;;;;;;7.04;62.95;98722.75;5069053;28;20032;-72
2022/02/10 23:11:56;;;;;;;21.27;10.80;;;;;;;7.03;63.06;98725.75;5068011;28;20421;-72
2022/02/10 23:14:22;;;;;;;20.20;10.20;;;;;;;6.95;63.33;98722.44;5068199;28;20036;-72
2022/02/10 23:16:47;;;;;;;21.98;10.00;;;;;;;6.94;63.43;98718.06;5069025;28;20024;-71
2022/02/10 23:19:14;;;;;;;15.55;9.32;;;;;;;6.93;63.38;98721.06;5069584;28;20025;-72
2022/02/10 23:21:40;;;;;;;16.85;8.65;;;;;;;6.94;63.31;98730.88;5068608;28;20447;-72
2022/02/10 23:24:06;;;;;;;17.75;9.45;;;;;;;6.91;63.73;98731.41;5068885;28;20044;-72
2022/02/10 23:26:32;;;;;;;15.93;9.07;;;;;;;6.88;63.89;98732.78;5069072;28;20120;-72
2022/02/10 23:28:58;;;;;;;15.18;8.77;;;;;;;6.84;63.93;98729.75;5063052;28;20108;-71
2022/02/10 23:31:27;;;;;;;14.85;8.15;;;;;;;6.83;63.97;98732.75;5066358;28;20041;-72
2022/02/10 23:33:56;;;;;;;18.15;8.88;;;;;;;6.82;64.14;98722.94;5069386;28;20059;-72
2022/02/10 23:44:17;;;;;;;15.75;8.63;;;;;;;6.73;64.60;98728.03;5066529;28;20645;-73
2022/02/10 23:46:44;;;;;;;14.52;8.50;;;;;;;6.71;64.52;98727.53;5067970;28;20035;-73
2022/02/10 23:49:13;;;;;;;16.70;8.48;;;;;;;6.71;64.78;98724.78;5068828;28;20906;-73
2022/02/10 23:51:47;;;;;;;13.43;8.68;;;;;;;6.74;64.31;98718.78;5068301;28;20017;-73
2022/02/10 23:54:12;;;;;;;15.48;8.68;;;;;;;6.75;64.75;98722.34;5068006;28;20025;-71
2022/02/10 23:56:44;;;;;;;16.30;8.55;;;;;;;6.75;64.35;98719.63;5068387;28;20021;-73
2022/02/10 23:59:18;;;;;;;15.25;8.93;;;;;;;6.74;64.78;98720.69;5066330;28;20473;-73
